createdAt,value
2018-11-10T00:02:15.606Z,80.85
2018-11-10T00:05:20.486Z,81.63
2018-11-10T00:08:24.690Z,81.13
2018-11-10T00:11:28.782Z,81.09
2018-11-10T00:14:32.918Z,80.87
2018-11-10T00:17:37.069Z,81.21
2018-11-10T00:20:41.215Z,80.82
2018-11-10T00:23:45.369Z,80.92
2018-11-10T00:26:49.542Z,82.76
2018-11-10T00:29:53.681Z,81.96
2018-11-10T00:32:57.847Z,81.01
2018-11-10T00:36:02.008Z,78.88
2018-11-10T00:39:08.448Z,79.25
2018-11-10T00:42:12.607Z,80.40
2018-11-10T00:45:16.751Z,80.59
2018-11-10T00:48:20.897Z,80.29
2018-11-10T00:51:25.035Z,79.03
2018-11-10T00:54:29.270Z,77.28
2018-11-10T00:57:33.435Z,77.45
2018-11-10T01:00:38.395Z,78.44
2018-11-10T01:03:42.555Z,78.91
2018-11-10T01:06:46.702Z,78.50
2018-11-10T01:09:50.859Z,78.62
2018-11-10T01:12:55.023Z,78.66
2018-11-10T01:15:59.158Z,78.88
2018-11-10T01:19:03.315Z,78.94
2018-11-10T01:22:07.901Z,78.80
2018-11-10T01:25:12.337Z,81.05
2018-11-10T01:28:16.474Z,79.80
2018-11-10T01:31:20.618Z,79.45
2018-11-10T01:34:24.780Z,78.98
2018-11-10T01:37:28.918Z,78.81
2018-11-10T01:40:33.065Z,78.73
2018-11-10T01:43:37.217Z,79.69
2018-11-10T01:46:41.362Z,80.20
2018-11-10T01:49:45.546Z,82.71
2018-11-10T01:52:49.683Z,85.19
2018-11-10T01:55:53.825Z,83.92
2018-11-10T01:58:59.581Z,83.55
2018-11-10T02:02:03.799Z,85.49
2018-11-10T02:05:07.999Z,85.86
2018-11-10T02:08:12.159Z,85.87
2018-11-10T02:11:16.306Z,83.34
2018-11-10T02:14:20.458Z,84.20
2018-11-10T02:17:24.593Z,83.23
2018-11-10T02:20:28.751Z,84.55
2018-11-10T02:23:32.909Z,85.46
2018-11-10T02:26:37.014Z,83.95
2018-11-10T02:29:41.124Z,82.06
2018-11-10T02:32:45.234Z,82.12
2018-11-10T02:35:49.346Z,81.41
2018-11-10T02:38:53.540Z,81.86
2018-11-10T02:41:57.588Z,82.21
2018-11-10T02:45:01.707Z,80.15
2018-11-10T02:48:05.852Z,81.21
2018-11-10T02:51:09.973Z,80.64
2018-11-10T02:54:14.076Z,80.04
2018-11-10T02:57:18.183Z,80.23
2018-11-10T03:00:22.293Z,82.74
2018-11-10T03:03:26.402Z,83.46
2018-11-10T03:06:30.504Z,84.65
2018-11-10T03:09:34.602Z,84.49
2018-11-10T03:12:39.571Z,83.80
2018-11-10T03:15:43.717Z,82.93
2018-11-10T03:18:47.840Z,81.89
2018-11-10T03:21:51.942Z,84.52
2018-11-10T03:24:56.063Z,83.78
2018-11-10T03:28:00.191Z,83.60
2018-11-10T03:31:04.303Z,83.62
2018-11-10T03:34:08.447Z,84.62
2018-11-10T03:37:12.587Z,84.12
2018-11-10T03:40:16.720Z,83.66
2018-11-10T03:43:20.851Z,83.41
2018-11-10T03:46:26.181Z,83.54
2018-11-10T03:49:30.303Z,82.51
2018-11-10T03:52:34.430Z,82.35
2018-11-10T03:55:38.564Z,81.72
2018-11-10T03:58:42.703Z,82.37
2018-11-10T04:01:46.839Z,82.75
2018-11-10T04:04:50.978Z,82.78
2018-11-10T04:07:55.107Z,83.45
2018-11-10T04:10:59.247Z,84.33
2018-11-10T04:14:03.383Z,84.78
2018-11-10T04:17:07.498Z,85.07
2018-11-10T04:20:11.675Z,85.04
2018-11-10T04:23:15.802Z,84.91
2018-11-10T04:26:19.935Z,84.99
2018-11-10T04:29:24.196Z,85.10
2018-11-10T04:32:28.324Z,85.01
2018-11-10T04:35:32.466Z,84.67
2018-11-10T04:38:36.582Z,85.21
2018-11-10T04:41:40.691Z,85.35
2018-11-10T04:44:44.823Z,85.79
2018-11-10T04:47:48.939Z,85.67
2018-11-10T04:50:53.055Z,86.36
2018-11-10T04:53:57.213Z,86.00
2018-11-10T04:57:01.324Z,86.18
2018-11-10T05:00:08.133Z,86.15
2018-11-10T05:03:12.244Z,86.01
2018-11-10T05:06:16.377Z,85.86
2018-11-10T05:09:20.528Z,85.51
2018-11-10T05:12:24.634Z,85.14
2018-11-10T05:15:28.738Z,84.84
2018-11-10T05:18:32.854Z,84.33
2018-11-10T05:21:36.960Z,84.37
2018-11-10T05:24:41.075Z,83.71
2018-11-10T05:27:45.197Z,83.80
2018-11-10T05:30:49.317Z,82.87
2018-11-10T05:33:53.439Z,83.12
2018-11-10T05:36:57.542Z,83.62
2018-11-10T05:40:01.667Z,84.18
2018-11-10T05:43:05.795Z,83.81
2018-11-10T05:46:09.921Z,84.06
2018-11-10T05:49:14.297Z,84.31
2018-11-10T05:52:18.383Z,83.86
2018-11-10T05:55:22.495Z,83.78
2018-11-10T05:58:26.599Z,83.59
2018-11-10T06:01:30.706Z,83.00
2018-11-10T06:04:34.820Z,82.70
2018-11-10T06:07:38.927Z,82.63
2018-11-10T06:10:43.034Z,82.08
2018-11-10T06:13:47.154Z,82.08
2018-11-10T06:16:51.262Z,81.92
2018-11-10T06:19:55.367Z,81.83
2018-11-10T06:22:59.511Z,81.96
2018-11-10T06:26:03.734Z,81.88
2018-11-10T06:29:07.847Z,81.66
2018-11-10T06:32:11.961Z,82.50
2018-11-10T06:35:16.073Z,82.27
2018-11-10T06:38:20.246Z,82.31
2018-11-10T06:41:24.413Z,82.17
2018-11-10T06:44:28.466Z,81.98
2018-11-10T06:47:32.567Z,81.69
2018-11-10T06:50:36.683Z,81.88
2018-11-10T06:53:40.795Z,81.81
2018-11-10T06:56:44.901Z,81.10
2018-11-10T06:59:49.014Z,80.84
2018-11-10T07:02:53.163Z,81.09
2018-11-10T07:05:57.278Z,80.50
2018-11-10T07:09:01.394Z,80.84
2018-11-10T07:12:05.822Z,80.92
2018-11-10T07:15:10.119Z,81.46
2018-11-10T07:18:14.354Z,81.17
2018-11-10T07:21:18.334Z,80.89
2018-11-10T07:24:22.443Z,81.18
2018-11-10T07:27:26.555Z,81.14
2018-11-10T07:30:30.670Z,81.50
2018-11-10T07:33:34.800Z,80.83
2018-11-10T07:36:38.940Z,80.50
2018-11-10T07:39:43.102Z,80.87
2018-11-10T07:42:47.225Z,80.31
2018-11-10T07:45:51.326Z,80.15
2018-11-10T07:48:55.566Z,80.42
2018-11-10T07:51:59.695Z,80.94
2018-11-10T07:55:03.847Z,80.58
2018-11-10T07:58:07.971Z,80.62
2018-11-10T08:01:12.107Z,80.56
2018-11-10T08:04:16.250Z,80.14
2018-11-10T08:07:20.362Z,79.83
2018-11-10T08:10:24.497Z,78.88
2018-11-10T08:13:28.606Z,80.18
2018-11-10T08:16:32.759Z,81.34
2018-11-10T08:19:36.983Z,80.95
2018-11-10T08:22:41.360Z,81.93
2018-11-10T08:25:45.499Z,82.07
2018-11-10T08:28:49.633Z,81.23
2018-11-10T08:31:53.795Z,81.61
2018-11-10T08:34:57.926Z,80.18
2018-11-10T08:38:02.074Z,79.35
2018-11-10T08:41:06.876Z,79.15
2018-11-10T08:44:11.013Z,79.21
2018-11-10T08:47:15.141Z,79.04
2018-11-10T08:50:19.287Z,78.63
2018-11-10T08:53:23.410Z,78.26
2018-11-10T08:56:27.531Z,80.31
2018-11-10T08:59:32.302Z,79.48
2018-11-10T09:02:36.544Z,80.22
2018-11-10T09:05:40.722Z,79.46
2018-11-10T09:08:44.934Z,78.76
2018-11-10T09:11:49.131Z,78.86
2018-11-10T09:14:53.287Z,78.22
2018-11-10T09:17:57.429Z,78.29
2018-11-10T09:21:01.578Z,78.35
2018-11-10T09:24:06.151Z,78.23
2018-11-10T09:27:10.298Z,77.50
2018-11-10T09:30:15.715Z,76.87
2018-11-10T09:33:19.872Z,77.15
2018-11-10T09:36:24.040Z,78.33
2018-11-10T09:39:28.155Z,76.92
2018-11-10T09:42:32.391Z,76.47
2018-11-10T09:45:36.403Z,74.65
2018-11-10T09:48:40.583Z,74.94
2018-11-10T09:51:44.700Z,74.53
2018-11-10T09:54:48.813Z,73.08
2018-11-10T09:57:53.223Z,69.84
2018-11-10T10:00:57.408Z,65.41
2018-11-10T10:04:01.446Z,60.87
2018-11-10T10:07:05.638Z,57.68
2018-11-10T10:10:12.235Z,53.93
2018-11-10T10:13:16.419Z,53.24
2018-11-10T10:16:20.614Z,55.75
2018-11-10T10:19:24.687Z,57.77
2018-11-10T10:22:28.819Z,59.15
2018-11-10T10:25:32.950Z,60.21
2018-11-10T10:28:37.177Z,61.93
2018-11-10T10:31:41.183Z,62.00
2018-11-10T10:34:45.486Z,62.60
2018-11-10T10:37:50.475Z,63.41
2018-11-10T10:40:54.618Z,64.41
2018-11-10T10:43:58.755Z,64.39
2018-11-10T10:47:02.903Z,64.47
2018-11-10T10:50:08.687Z,64.67
2018-11-10T10:53:12.827Z,64.31
2018-11-10T10:56:17.037Z,65.14
2018-11-10T10:59:21.094Z,64.96
2018-11-10T11:03:30.061Z,66.71
2018-11-10T11:06:34.182Z,66.19
2018-11-10T11:09:38.391Z,65.86
2018-11-10T11:12:42.459Z,65.54
2018-11-10T11:15:46.660Z,65.50
2018-11-10T11:18:50.748Z,65.19
2018-11-10T11:21:54.918Z,64.50
2018-11-10T11:24:59.040Z,65.47
2018-11-10T11:28:03.183Z,64.08
2018-11-10T11:31:07.388Z,65.04
2018-11-10T11:34:11.453Z,64.20
2018-11-10T11:37:15.602Z,64.70
2018-11-10T11:40:19.727Z,63.89
2018-11-10T11:43:23.890Z,64.67
2018-11-10T11:46:28.032Z,64.76
2018-11-10T11:49:32.183Z,64.72
2018-11-10T11:52:36.550Z,64.65
2018-11-10T11:55:40.696Z,65.35
2018-11-10T11:58:45.024Z,64.11
2018-11-10T12:01:49.174Z,63.35
2018-11-10T12:04:53.294Z,64.43
2018-11-10T12:07:57.447Z,63.80
2018-11-10T12:11:01.591Z,64.35
2018-11-10T12:14:05.890Z,63.73
2018-11-10T12:17:10.031Z,63.25
2018-11-10T12:20:15.331Z,63.14
2018-11-10T12:23:19.480Z,63.13
2018-11-10T12:26:23.637Z,62.21
2018-11-10T12:29:27.863Z,62.15
2018-11-10T12:32:32.014Z,62.42
2018-11-10T12:35:36.160Z,63.15
2018-11-10T12:38:40.320Z,61.94
2018-11-10T12:41:44.502Z,63.24
2018-11-10T12:44:48.661Z,63.45
2018-11-10T12:47:52.794Z,62.94
2018-11-10T12:50:56.943Z,63.41
2018-11-10T12:54:01.078Z,63.60
2018-11-10T12:57:05.351Z,62.49
2018-11-10T13:00:10.991Z,62.26
2018-11-10T13:03:15.118Z,59.73
2018-11-10T13:06:19.264Z,55.46
2018-11-10T13:09:23.414Z,56.16
2018-11-10T13:12:27.544Z,56.86
2018-11-10T13:15:31.678Z,57.24
2018-11-10T13:18:35.858Z,57.78
2018-11-10T13:21:40.557Z,59.22
2018-11-10T13:24:44.687Z,58.31
2018-11-10T13:27:48.847Z,58.57
2018-11-10T13:30:53.050Z,59.59
2018-11-10T13:33:57.122Z,60.35
2018-11-10T13:37:01.263Z,61.32
2018-11-10T13:40:05.560Z,61.43
2018-11-10T13:43:09.723Z,62.25
2018-11-10T13:46:13.850Z,60.39
2018-11-10T13:49:17.972Z,60.41
2018-11-10T13:52:22.470Z,59.97
2018-11-10T13:55:26.228Z,59.99
2018-11-10T13:58:30.363Z,58.58
2018-11-10T14:01:34.523Z,60.09
2018-11-10T14:04:38.657Z,61.81
2018-11-10T14:07:42.926Z,61.65
2018-11-10T14:10:47.061Z,63.21
2018-11-10T14:13:51.207Z,64.67
2018-11-10T14:16:55.358Z,65.54
2018-11-10T14:19:59.516Z,64.40
2018-11-10T14:23:03.650Z,65.28
2018-11-10T14:26:07.826Z,65.27
2018-11-10T14:29:11.914Z,65.80
2018-11-10T14:32:16.058Z,65.89
2018-11-10T14:35:20.203Z,67.19
2018-11-10T14:38:24.345Z,66.64
2018-11-10T14:41:28.490Z,66.82
2018-11-10T14:44:32.658Z,68.37
2018-11-10T14:47:36.807Z,68.99
2018-11-10T14:50:40.939Z,69.72
2018-11-10T14:53:45.084Z,70.65
2018-11-10T14:56:49.260Z,71.34
2018-11-10T14:59:53.383Z,71.29
2018-11-10T15:02:57.536Z,70.17
2018-11-10T15:06:01.670Z,71.61
2018-11-10T15:09:07.876Z,71.68
2018-11-10T15:12:12.085Z,71.42
2018-11-10T15:15:17.215Z,71.41
2018-11-10T15:18:21.536Z,71.97
2018-11-10T15:21:25.487Z,73.05
2018-11-10T15:24:29.628Z,73.45
2018-11-10T15:27:33.770Z,72.98
2018-11-10T15:30:37.900Z,73.50
2018-11-10T15:33:42.050Z,72.92
2018-11-10T15:36:46.344Z,73.03
2018-11-10T15:39:50.474Z,73.42
2018-11-10T15:42:54.643Z,73.52
2018-11-10T15:45:58.762Z,73.90
2018-11-10T15:49:02.923Z,73.35
2018-11-10T15:52:07.091Z,73.47
2018-11-10T15:55:11.970Z,73.49
2018-11-10T15:58:16.104Z,73.59
2018-11-10T16:01:20.244Z,73.87
2018-11-10T16:04:24.389Z,73.61
2018-11-10T16:07:28.517Z,74.74
2018-11-10T16:10:32.661Z,74.26
2018-11-10T16:13:36.790Z,74.70
2018-11-10T16:16:40.918Z,74.84
2018-11-10T16:19:45.063Z,74.12
2018-11-10T16:22:50.453Z,74.77
2018-11-10T16:25:54.580Z,75.61
2018-11-10T16:28:58.719Z,74.54
2018-11-10T16:32:02.842Z,74.29
2018-11-10T16:35:07.640Z,74.73
2018-11-10T16:38:11.785Z,74.38
2018-11-10T16:41:15.910Z,75.32
2018-11-10T16:44:20.065Z,75.12
2018-11-10T16:47:24.218Z,74.69
2018-11-10T16:50:28.350Z,74.87
2018-11-10T16:53:32.519Z,74.98
2018-11-10T16:56:36.646Z,75.32
2018-11-10T16:59:40.780Z,75.41
2018-11-10T17:02:44.927Z,75.14
2018-11-10T17:05:49.050Z,75.82
2018-11-10T17:08:53.282Z,75.80
2018-11-10T17:11:57.331Z,75.87
2018-11-10T17:15:01.472Z,75.78
2018-11-10T17:18:05.631Z,75.51
2018-11-10T17:21:09.773Z,75.56
2018-11-10T17:24:13.912Z,75.94
2018-11-10T17:27:18.069Z,76.18
2018-11-10T17:30:22.411Z,76.63
2018-11-10T17:33:26.451Z,76.26
2018-11-10T17:36:30.554Z,76.85
2018-11-10T17:39:34.776Z,76.74
2018-11-10T17:42:38.873Z,76.65
2018-11-10T17:45:42.987Z,77.14
2018-11-10T17:48:47.099Z,76.72
2018-11-10T17:51:51.243Z,77.20
2018-11-10T17:54:55.385Z,76.45
2018-11-10T17:57:59.639Z,76.83
2018-11-10T18:01:03.563Z,77.35
2018-11-10T18:04:07.695Z,77.72
2018-11-10T18:07:11.799Z,77.79
2018-11-10T18:10:17.186Z,77.30
2018-11-10T18:13:21.316Z,77.49
2018-11-10T18:16:25.466Z,77.35
2018-11-10T18:19:29.602Z,78.09
2018-11-10T18:22:33.740Z,78.13
2018-11-10T18:25:37.847Z,78.36
2018-11-10T18:28:41.968Z,78.51
2018-11-10T18:31:46.075Z,77.92
2018-11-10T18:34:50.222Z,78.38
2018-11-10T18:37:54.364Z,78.78
2018-11-10T18:40:58.490Z,78.24
2018-11-10T18:44:02.642Z,78.07
2018-11-10T18:47:06.890Z,78.46
2018-11-10T18:50:13.466Z,78.01
2018-11-10T18:53:17.623Z,78.23
2018-11-10T18:56:21.763Z,77.34
2018-11-10T18:59:25.899Z,76.67
2018-11-10T19:02:30.036Z,75.34
2018-11-10T19:05:34.182Z,75.44
2018-11-10T19:08:38.325Z,74.29
2018-11-10T19:11:42.447Z,75.40
2018-11-10T19:14:46.579Z,74.58
2018-11-10T19:17:50.806Z,74.70
2018-11-10T19:20:55.044Z,74.59
2018-11-10T19:23:59.194Z,74.86
2018-11-10T19:27:03.310Z,74.39
2018-11-10T19:30:11.222Z,74.41
2018-11-10T19:33:15.354Z,74.07
2018-11-10T19:36:19.495Z,74.21
2018-11-10T19:39:23.623Z,73.97
2018-11-10T19:42:27.734Z,74.37
2018-11-10T19:45:31.859Z,74.99
2018-11-10T19:48:36.127Z,74.78
2018-11-10T19:51:40.536Z,74.49
2018-11-10T19:54:44.359Z,74.74
2018-11-10T19:57:48.490Z,74.28
2018-11-10T20:00:52.714Z,74.68
2018-11-10T20:03:56.723Z,74.16
2018-11-10T20:07:00.829Z,74.93
2018-11-10T20:10:05.203Z,74.33
2018-11-10T20:13:09.418Z,75.18
2018-11-10T20:16:13.459Z,74.33
2018-11-10T20:19:17.590Z,74.74
2018-11-10T20:22:21.717Z,74.89
2018-11-10T20:25:25.842Z,74.24
2018-11-10T20:28:29.963Z,75.11
2018-11-10T20:31:34.086Z,75.55
2018-11-10T20:34:38.230Z,76.39
2018-11-10T20:37:43.003Z,74.76
2018-11-10T20:40:47.142Z,74.63
2018-11-10T20:43:51.270Z,74.55
2018-11-10T20:46:55.399Z,75.23
2018-11-10T20:49:59.736Z,75.42
2018-11-10T20:53:03.855Z,75.41
2018-11-10T20:56:07.969Z,75.86
2018-11-10T20:59:12.089Z,76.03
2018-11-10T21:02:16.191Z,76.30
2018-11-10T21:05:20.322Z,76.15
2018-11-10T21:08:24.467Z,76.18
2018-11-10T21:11:28.590Z,75.96
2018-11-10T21:14:32.723Z,76.68
2018-11-10T21:17:37.082Z,76.66
2018-11-10T21:20:41.550Z,77.18
2018-11-10T21:23:45.669Z,76.45
2018-11-10T21:26:49.780Z,76.26
2018-11-10T21:29:53.979Z,75.90
2018-11-10T21:32:58.047Z,76.77
2018-11-10T21:36:02.199Z,77.60
2018-11-10T21:39:09.819Z,77.08
2018-11-10T21:42:13.963Z,77.02
2018-11-10T21:45:18.482Z,77.23
2018-11-10T21:48:22.636Z,77.06
2018-11-10T21:51:26.795Z,77.05
2018-11-10T21:54:30.931Z,76.33
2018-11-10T21:57:35.066Z,76.75
2018-11-10T22:00:39.215Z,76.53
2018-11-10T22:03:43.338Z,75.92
2018-11-10T22:06:47.487Z,76.12
2018-11-10T22:09:51.665Z,76.26
2018-11-10T22:12:55.783Z,76.33
2018-11-10T22:16:00.043Z,76.04
2018-11-10T22:19:04.063Z,76.28
2018-11-10T22:22:08.206Z,76.89
2018-11-10T22:25:13.175Z,76.54
2018-11-10T22:28:17.322Z,76.78
2018-11-10T22:31:21.563Z,77.13
2018-11-10T22:34:25.703Z,77.20
2018-11-10T22:37:29.811Z,77.52
2018-11-10T22:40:33.936Z,77.89
2018-11-10T22:43:38.050Z,77.41
2018-11-10T22:46:42.169Z,77.94
2018-11-10T22:49:46.510Z,77.90
2018-11-10T22:52:50.669Z,76.45
2018-11-10T22:55:54.797Z,77.13
2018-11-10T22:58:58.927Z,77.43
2018-11-10T23:02:03.059Z,77.29
2018-11-10T23:05:07.843Z,77.57
2018-11-10T23:08:11.963Z,77.47
2018-11-10T23:11:16.085Z,77.66
2018-11-10T23:14:20.219Z,77.58
2018-11-10T23:17:24.323Z,76.80
2018-11-10T23:20:28.457Z,77.14
2018-11-10T23:23:32.641Z,77.45
2018-11-10T23:26:36.707Z,77.62
2018-11-10T23:29:40.827Z,77.17
2018-11-10T23:32:44.955Z,77.35
2018-11-10T23:35:49.091Z,77.60
2018-11-10T23:38:53.217Z,76.77
2018-11-10T23:41:57.359Z,77.08
2018-11-10T23:45:01.507Z,76.79
2018-11-10T23:48:06.081Z,77.05
2018-11-10T23:51:10.225Z,76.97
2018-11-10T23:54:14.412Z,77.68
2018-11-10T23:57:18.510Z,77.74
